createdAt,value
2023-01-31T00:01:09.462Z,12.25
2023-01-31T00:03:36.728Z,11.10
2023-01-31T00:06:20.680Z,9.20
2023-01-31T00:08:48.911Z,10.13
2023-01-31T00:11:17.179Z,12.88
2023-01-31T00:13:44.419Z,10.52
2023-01-31T00:16:12.080Z,10.07
2023-01-31T00:18:39.690Z,10.18
2023-01-31T00:21:08.751Z,12.27
2023-01-31T00:23:36.183Z,12.10
2023-01-31T00:26:23.302Z,12.40
2023-01-31T00:28:51.081Z,13.20
2023-01-31T00:31:19.255Z,11.05
2023-01-31T00:33:47.748Z,11.70
2023-01-31T00:36:16.729Z,11.70
2023-01-31T00:38:44.693Z,9.52
2023-01-31T00:41:12.358Z,10.93
2023-01-31T00:43:39.410Z,9.95
2023-01-31T00:46:06.579Z,10.48
2023-01-31T00:48:37.172Z,13.07
2023-01-31T00:51:04.355Z,10.93
2023-01-31T00:53:31.494Z,11.43
2023-01-31T00:56:07.973Z,9.73
2023-01-31T00:58:35.871Z,9.68
2023-01-31T01:01:13.514Z,11.77
2023-01-31T01:03:41.220Z,10.43
2023-01-31T01:06:08.864Z,11.05
2023-01-31T01:08:37.173Z,10.57
2023-01-31T01:11:07.697Z,10.03
2023-01-31T01:13:34.883Z,10.93
2023-01-31T01:16:06.209Z,9.60
2023-01-31T01:18:36.282Z,8.93
2023-01-31T01:21:08.181Z,10.02
2023-01-31T01:23:35.340Z,11.43
2023-01-31T01:26:02.484Z,10.73
2023-01-31T01:28:30.217Z,12.02
2023-01-31T01:30:57.777Z,11.82
2023-01-31T01:33:26.691Z,11.07
2023-01-31T01:35:53.844Z,9.23
2023-01-31T01:38:21.173Z,10.45
2023-01-31T01:40:48.047Z,10.15
2023-01-31T01:43:15.211Z,10.35
2023-01-31T01:45:42.452Z,10.23
2023-01-31T01:48:15.190Z,7.70
2023-01-31T01:50:44.761Z,9.68
2023-01-31T01:53:21.646Z,10.80
2023-01-31T01:55:52.234Z,10.03
2023-01-31T01:58:22.651Z,12.80
2023-01-31T02:00:50.887Z,11.32
2023-01-31T02:03:18.211Z,10.80
2023-01-31T02:05:47.673Z,11.33
2023-01-31T02:08:17.931Z,8.75
2023-01-31T02:10:48.489Z,10.57
2023-01-31T02:13:16.069Z,8.27
2023-01-31T02:15:43.128Z,9.63
2023-01-31T02:18:10.329Z,8.57
2023-01-31T02:20:52.225Z,9.40
2023-01-31T02:23:20.347Z,9.05
2023-01-31T02:25:50.662Z,9.20
2023-01-31T02:28:37.753Z,12.38
2023-01-31T02:31:25.254Z,8.10
2023-01-31T02:33:55.944Z,12.18
2023-01-31T02:36:36.978Z,10.23
2023-01-31T02:39:13.798Z,10.47
2023-01-31T02:42:06.322Z,11.00
2023-01-31T02:45:00.702Z,9.55
2023-01-31T02:47:27.807Z,10.60
2023-01-31T02:49:58.605Z,12.43
2023-01-31T02:52:36.533Z,7.87
2023-01-31T02:55:29.011Z,11.15
2023-01-31T02:57:58.281Z,11.77
2023-01-31T03:00:26.301Z,10.77
2023-01-31T03:02:53.528Z,11.00
2023-01-31T03:05:21.783Z,11.93
2023-01-31T03:07:52.142Z,13.32
2023-01-31T03:10:39.232Z,9.75
2023-01-31T03:13:09.609Z,11.73
2023-01-31T03:16:01.820Z,14.00
2023-01-31T03:18:30.800Z,10.57
2023-01-31T03:21:14.801Z,11.07
2023-01-31T03:23:43.176Z,9.43
2023-01-31T03:26:10.437Z,9.50
2023-01-31T03:28:42.172Z,10.13
2023-01-31T03:31:27.503Z,10.60
2023-01-31T03:33:58.503Z,11.52
2023-01-31T03:36:28.905Z,11.90
2023-01-31T03:38:56.013Z,9.67
2023-01-31T03:41:43.054Z,12.20
2023-01-31T03:44:15.754Z,12.88
2023-01-31T03:46:46.064Z,13.13
2023-01-31T03:49:16.499Z,12.18
2023-01-31T03:51:49.119Z,12.70
2023-01-31T03:54:19.738Z,8.85
2023-01-31T03:56:51.616Z,10.52
2023-01-31T03:59:22.740Z,10.65
2023-01-31T04:01:52.286Z,11.10
2023-01-31T04:04:26.826Z,12.70
2023-01-31T04:06:53.652Z,10.20
2023-01-31T04:09:23.027Z,11.15
2023-01-31T04:11:50.934Z,10.85
2023-01-31T04:14:18.219Z,10.80
2023-01-31T04:16:45.337Z,10.57
2023-01-31T04:19:12.506Z,13.27
2023-01-31T04:21:39.792Z,12.05
2023-01-31T04:24:09.244Z,13.48
2023-01-31T04:26:37.023Z,12.48
2023-01-31T04:29:04.498Z,10.88
2023-01-31T04:31:32.446Z,11.23
2023-01-31T04:33:59.853Z,12.23
2023-01-31T04:36:27.371Z,9.70
2023-01-31T04:38:54.456Z,10.88
2023-01-31T04:41:21.557Z,12.20
2023-01-31T04:43:48.879Z,13.55
2023-01-31T04:46:15.997Z,11.27
2023-01-31T04:48:43.103Z,9.93
2023-01-31T04:51:10.229Z,15.35
2023-01-31T04:53:37.643Z,11.15
2023-01-31T04:56:05.884Z,10.27
2023-01-31T04:58:33.005Z,11.02
2023-01-31T05:01:00.128Z,10.25
2023-01-31T05:03:27.259Z,10.00
2023-01-31T05:05:54.408Z,10.68
2023-01-31T05:08:21.547Z,10.50
2023-01-31T05:10:48.900Z,11.57
2023-01-31T05:13:16.007Z,10.43
2023-01-31T05:15:43.083Z,11.82
2023-01-31T05:18:10.269Z,12.10
2023-01-31T05:20:40.783Z,10.77
2023-01-31T05:23:08.369Z,13.40
2023-01-31T05:25:36.308Z,10.97
2023-01-31T05:28:04.407Z,11.15
2023-01-31T05:30:31.735Z,11.13
2023-01-31T05:32:59.240Z,13.63
2023-01-31T05:35:26.375Z,8.75
2023-01-31T05:37:55.297Z,11.65
2023-01-31T05:40:23.101Z,11.07
2023-01-31T05:42:54.955Z,8.23
2023-01-31T05:45:22.486Z,11.38
2023-01-31T05:47:50.488Z,12.10
2023-01-31T05:50:18.392Z,12.53
2023-01-31T05:52:50.901Z,10.77
2023-01-31T05:55:18.484Z,11.02
2023-01-31T05:57:45.844Z,10.38
2023-01-31T06:00:14.261Z,11.00
2023-01-31T06:02:41.744Z,11.23
2023-01-31T06:05:09.461Z,11.45
2023-01-31T06:07:36.620Z,13.23
2023-01-31T06:10:03.860Z,8.38
2023-01-31T06:12:31.329Z,11.73
2023-01-31T06:14:58.516Z,13.05
2023-01-31T06:17:25.672Z,10.32
2023-01-31T06:19:52.815Z,15.95
2023-01-31T06:22:20.524Z,11.15
2023-01-31T06:24:47.666Z,10.73
2023-01-31T06:27:14.805Z,11.23
2023-01-31T06:29:41.920Z,11.25
2023-01-31T06:32:09.090Z,11.85
2023-01-31T06:34:36.335Z,14.40
2023-01-31T06:37:03.411Z,14.50
2023-01-31T06:39:30.675Z,12.13
2023-01-31T06:41:57.966Z,9.30
2023-01-31T06:44:26.571Z,10.27
2023-01-31T06:46:54.833Z,12.27
2023-01-31T06:49:21.932Z,12.07
2023-01-31T06:51:49.071Z,12.07
2023-01-31T06:54:16.209Z,13.93
2023-01-31T06:56:43.328Z,10.95
2023-01-31T06:59:10.553Z,14.00
2023-01-31T07:01:37.765Z,13.25
2023-01-31T07:04:04.985Z,12.77
2023-01-31T07:06:32.577Z,12.45
2023-01-31T07:08:59.699Z,11.55
2023-01-31T07:11:26.837Z,11.45
2023-01-31T07:13:54.020Z,11.13
2023-01-31T07:16:22.664Z,9.57
2023-01-31T07:18:52.640Z,10.45
2023-01-31T07:21:19.916Z,12.95
2023-01-31T07:23:47.129Z,12.35
2023-01-31T07:26:14.783Z,12.85
2023-01-31T07:28:42.077Z,12.48
2023-01-31T07:31:11.941Z,13.32
2023-01-31T07:33:39.935Z,12.63
2023-01-31T07:36:08.143Z,13.23
2023-01-31T07:38:35.420Z,12.95
2023-01-31T07:41:03.616Z,16.00
2023-01-31T07:43:31.284Z,14.93
2023-01-31T07:45:58.904Z,14.60
2023-01-31T07:48:26.256Z,11.80
2023-01-31T07:50:58.484Z,12.48
2023-01-31T07:53:25.627Z,12.43
2023-01-31T07:55:52.716Z,15.63
2023-01-31T07:58:19.875Z,13.63
2023-01-31T08:01:06.986Z,10.75
2023-01-31T08:03:34.271Z,15.18
2023-01-31T08:06:02.488Z,13.93
2023-01-31T08:08:29.696Z,13.13
2023-01-31T08:10:56.847Z,11.30
2023-01-31T08:13:26.714Z,11.75
2023-01-31T08:15:55.090Z,12.50
2023-01-31T08:18:22.248Z,13.07
2023-01-31T08:20:49.522Z,11.27
2023-01-31T08:23:16.675Z,12.30
2023-01-31T08:25:43.424Z,13.25
2023-01-31T08:28:10.809Z,12.15
2023-01-31T08:30:42.113Z,9.85
2023-01-31T08:33:09.968Z,12.57
2023-01-31T08:35:37.378Z,12.50
2023-01-31T08:38:16.167Z,14.52
2023-01-31T08:40:43.730Z,12.65
2023-01-31T08:43:10.813Z,9.87
2023-01-31T08:45:38.167Z,11.03
2023-01-31T08:48:05.439Z,10.55
2023-01-31T08:50:33.128Z,13.73
2023-01-31T08:53:01.617Z,14.23
2023-01-31T08:55:29.283Z,11.90
2023-01-31T08:58:00.025Z,11.18
2023-01-31T09:00:27.393Z,11.38
2023-01-31T09:02:56.631Z,11.60
2023-01-31T09:05:24.112Z,11.27
2023-01-31T09:07:51.248Z,9.90
2023-01-31T09:10:18.913Z,11.40
2023-01-31T09:12:46.132Z,11.20
2023-01-31T09:15:13.416Z,9.88
2023-01-31T09:17:41.151Z,13.10
2023-01-31T09:20:10.103Z,10.75
2023-01-31T09:22:37.578Z,12.85
2023-01-31T09:25:05.248Z,10.23
2023-01-31T09:27:32.552Z,10.07
2023-01-31T09:30:02.891Z,11.75
2023-01-31T09:32:32.048Z,10.75
2023-01-31T09:34:59.614Z,12.07
2023-01-31T09:37:27.034Z,10.05
2023-01-31T09:39:54.161Z,11.87
2023-01-31T09:42:24.276Z,11.67
2023-01-31T09:45:11.267Z,12.32
2023-01-31T09:47:41.659Z,13.70
2023-01-31T09:50:28.746Z,10.17
2023-01-31T09:52:55.830Z,13.45
2023-01-31T09:55:28.545Z,9.90
2023-01-31T09:58:15.594Z,12.20
2023-01-31T10:00:47.689Z,11.15
2023-01-31T10:03:25.868Z,10.00
2023-01-31T10:05:55.320Z,10.20
2023-01-31T10:08:42.399Z,8.98
2023-01-31T10:11:14.321Z,10.38
2023-01-31T10:13:49.680Z,10.33
2023-01-31T10:16:28.060Z,11.32
2023-01-31T10:19:00.272Z,10.43
2023-01-31T10:21:31.552Z,10.60
2023-01-31T10:24:03.275Z,12.20
2023-01-31T10:26:32.417Z,9.43
2023-01-31T10:29:03.725Z,10.43
2023-01-31T10:31:34.853Z,13.02
2023-01-31T10:34:01.937Z,11.90
2023-01-31T10:36:33.669Z,12.37
2023-01-31T10:39:04.722Z,11.95
2023-01-31T10:41:44.582Z,10.25
2023-01-31T10:44:21.238Z,11.20
2023-01-31T10:46:48.978Z,10.75
2023-01-31T10:49:16.103Z,12.20
2023-01-31T10:51:53.637Z,14.55
2023-01-31T10:54:20.772Z,8.55
2023-01-31T10:56:48.695Z,10.50
2023-01-31T10:59:17.160Z,10.45
2023-01-31T11:01:44.408Z,12.70
2023-01-31T11:04:22.812Z,10.30
2023-01-31T11:06:49.956Z,10.27
2023-01-31T11:09:17.329Z,13.90
2023-01-31T11:12:00.793Z,11.57
2023-01-31T11:14:29.911Z,11.40
2023-01-31T11:16:59.145Z,11.20
2023-01-31T11:19:30.777Z,9.68
2023-01-31T11:21:57.936Z,8.70
2023-01-31T11:24:26.060Z,7.47
2023-01-31T11:26:58.973Z,9.45
2023-01-31T11:29:31.141Z,11.95
2023-01-31T11:31:59.603Z,12.15
2023-01-31T11:34:29.918Z,11.38
2023-01-31T11:37:06.395Z,10.88
2023-01-31T11:39:35.344Z,8.15
2023-01-31T11:42:06.613Z,10.68
2023-01-31T11:44:33.819Z,10.05
2023-01-31T11:47:04.452Z,11.00
2023-01-31T11:49:33.901Z,11.63
2023-01-31T11:52:03.205Z,13.27
2023-01-31T11:54:32.096Z,9.73
2023-01-31T11:57:00.137Z,10.07
2023-01-31T11:59:29.512Z,10.87
2023-01-31T12:01:58.908Z,11.65
2023-01-31T12:04:32.749Z,12.20
2023-01-31T12:07:02.877Z,11.73
2023-01-31T12:09:33.065Z,11.50
2023-01-31T12:12:06.423Z,9.93
2023-01-31T12:14:42.562Z,11.65
2023-01-31T12:17:19.384Z,10.75
2023-01-31T12:20:14.204Z,11.10
2023-01-31T12:22:57.004Z,12.15
2023-01-31T12:25:42.052Z,11.50
2023-01-31T12:28:10.328Z,11.98
2023-01-31T12:30:50.330Z,12.30
2023-01-31T12:33:37.389Z,10.32
2023-01-31T12:36:04.842Z,11.43
2023-01-31T12:38:51.896Z,12.68
2023-01-31T12:41:22.906Z,10.50
2023-01-31T12:44:05.724Z,12.43
2023-01-31T12:46:40.354Z,10.60
2023-01-31T12:49:08.572Z,11.07
2023-01-31T12:51:59.457Z,11.10
2023-01-31T12:54:26.620Z,12.77
2023-01-31T12:56:55.858Z,9.35
2023-01-31T12:59:42.895Z,11.10
2023-01-31T13:02:29.972Z,10.95
2023-01-31T13:05:04.354Z,11.27
2023-01-31T13:07:36.099Z,12.57
2023-01-31T13:10:07.861Z,8.80
2023-01-31T13:12:36.047Z,9.32
2023-01-31T13:15:06.133Z,10.63
2023-01-31T13:17:35.482Z,10.32
2023-01-31T13:20:04.021Z,11.23
2023-01-31T13:22:34.349Z,12.63
2023-01-31T13:25:21.678Z,9.88
2023-01-31T13:27:57.216Z,9.70
2023-01-31T13:30:31.875Z,8.97
2023-01-31T13:33:00.881Z,10.07
2023-01-31T13:35:32.431Z,10.35
2023-01-31T13:38:01.740Z,13.23
2023-01-31T13:40:31.071Z,8.63
2023-01-31T13:43:01.288Z,9.73
2023-01-31T13:45:32.684Z,10.95
2023-01-31T13:48:19.736Z,10.85
2023-01-31T13:50:50.276Z,9.73
2023-01-31T13:53:24.057Z,13.75
2023-01-31T13:55:51.713Z,14.68
2023-01-31T13:58:29.616Z,15.63
2023-01-31T14:00:59.745Z,16.65
2023-01-31T14:03:27.107Z,9.73
2023-01-31T14:05:56.742Z,9.77
2023-01-31T14:08:32.977Z,12.23
2023-01-31T14:11:03.197Z,11.98
2023-01-31T14:13:30.259Z,10.55
2023-01-31T14:15:58.124Z,13.15
2023-01-31T14:18:41.763Z,10.13
2023-01-31T14:21:28.819Z,14.45
2023-01-31T14:23:57.854Z,8.60
2023-01-31T14:26:44.926Z,10.55
2023-01-31T14:29:21.602Z,8.98
2023-01-31T14:31:49.678Z,10.00
2023-01-31T14:34:19.001Z,8.35
2023-01-31T14:36:46.071Z,10.15
2023-01-31T14:39:33.191Z,9.30
2023-01-31T14:42:20.191Z,12.30
2023-01-31T14:44:53.174Z,8.73
2023-01-31T14:47:25.777Z,10.38
2023-01-31T14:50:02.907Z,8.93
2023-01-31T14:52:39.049Z,11.52
2023-01-31T14:55:07.216Z,7.22
2023-01-31T14:57:40.545Z,9.82
2023-01-31T15:00:18.976Z,11.57
2023-01-31T15:02:49.596Z,10.30
2023-01-31T15:05:19.474Z,11.43
2023-01-31T15:08:06.934Z,9.77
2023-01-31T15:10:54.136Z,7.50
2023-01-31T15:13:38.834Z,8.02
2023-01-31T15:16:08.357Z,8.50
2023-01-31T15:18:36.203Z,8.18
2023-01-31T15:21:05.569Z,8.68
2023-01-31T15:23:34.473Z,13.43
2023-01-31T15:26:02.850Z,9.05
2023-01-31T15:28:31.669Z,8.38
2023-01-31T15:31:00.545Z,11.80
2023-01-31T15:33:31.190Z,10.55
2023-01-31T15:36:05.767Z,8.98
2023-01-31T15:38:33.927Z,8.90
2023-01-31T15:41:13.709Z,9.88
2023-01-31T15:43:40.853Z,7.78
2023-01-31T15:46:20.251Z,7.80
2023-01-31T15:48:47.389Z,7.18
2023-01-31T15:51:15.006Z,8.32
2023-01-31T15:53:42.966Z,7.65
2023-01-31T15:56:21.301Z,6.63
2023-01-31T15:58:50.255Z,7.00
2023-01-31T16:01:17.850Z,6.88
2023-01-31T16:03:54.278Z,6.80
2023-01-31T16:06:22.405Z,6.97
2023-01-31T16:08:53.997Z,6.53
2023-01-31T16:11:27.802Z,7.28
2023-01-31T16:13:56.600Z,7.00
2023-01-31T16:16:24.255Z,7.32
2023-01-31T16:18:53.093Z,9.00
2023-01-31T16:21:23.433Z,7.30
2023-01-31T16:23:57.797Z,7.30
2023-01-31T16:26:27.482Z,7.60
2023-01-31T16:28:58.017Z,8.32
2023-01-31T16:31:36.539Z,7.13
2023-01-31T16:34:05.977Z,6.20
2023-01-31T16:36:34.856Z,8.57
2023-01-31T16:39:03.360Z,8.43
2023-01-31T16:41:38.097Z,9.50
2023-01-31T16:44:06.288Z,8.18
2023-01-31T16:46:42.004Z,10.35
2023-01-31T16:49:25.609Z,10.52
2023-01-31T16:52:12.675Z,11.38
2023-01-31T16:54:55.894Z,22.55
2023-01-31T16:57:25.874Z,9.63
2023-01-31T16:59:53.662Z,8.35
2023-01-31T17:02:22.254Z,9.25
2023-01-31T17:04:50.559Z,8.40
2023-01-31T17:07:19.472Z,7.88
2023-01-31T17:09:47.298Z,8.37
2023-01-31T17:12:23.580Z,9.77
2023-01-31T17:14:56.941Z,8.30
2023-01-31T17:17:25.194Z,8.98
2023-01-31T17:19:52.265Z,7.78
2023-01-31T17:22:19.590Z,9.18
2023-01-31T17:24:46.896Z,7.55
2023-01-31T17:27:15.637Z,8.63
2023-01-31T17:29:43.463Z,9.07
2023-01-31T17:32:12.528Z,7.93
2023-01-31T17:34:40.072Z,8.57
2023-01-31T17:37:07.442Z,8.33
2023-01-31T17:39:34.921Z,6.95
2023-01-31T17:42:03.080Z,8.02
2023-01-31T17:44:30.277Z,10.20
2023-01-31T17:46:57.429Z,7.47
2023-01-31T17:49:24.564Z,7.35
2023-01-31T17:51:51.713Z,6.47
2023-01-31T17:54:18.864Z,8.13
2023-01-31T17:56:46.033Z,8.65
2023-01-31T17:59:25.261Z,6.90
2023-01-31T18:01:53.985Z,7.22
2023-01-31T18:04:21.176Z,7.88
2023-01-31T18:06:48.334Z,6.40
2023-01-31T18:09:17.009Z,7.18
2023-01-31T18:11:44.771Z,9.50
2023-01-31T18:14:12.477Z,6.72
2023-01-31T18:16:39.779Z,8.60
2023-01-31T18:19:06.928Z,8.70
2023-01-31T18:21:37.061Z,9.73
2023-01-31T18:24:06.585Z,7.80
2023-01-31T18:26:33.822Z,8.07
2023-01-31T18:29:00.902Z,9.05
2023-01-31T18:31:28.161Z,8.52
2023-01-31T18:33:55.342Z,7.75
2023-01-31T18:36:22.942Z,8.50
2023-01-31T18:38:50.619Z,8.77
2023-01-31T18:41:19.181Z,7.78
2023-01-31T18:43:46.939Z,6.80
2023-01-31T18:46:14.193Z,7.38
2023-01-31T18:48:41.876Z,6.45
2023-01-31T18:51:10.682Z,7.03
2023-01-31T18:53:38.989Z,7.40
2023-01-31T18:56:08.122Z,6.90
2023-01-31T18:58:36.257Z,6.45
2023-01-31T19:01:07.692Z,6.88
2023-01-31T19:03:34.881Z,8.32
2023-01-31T19:06:06.343Z,6.63
2023-01-31T19:08:33.461Z,6.13
2023-01-31T19:11:04.814Z,8.02
2023-01-31T19:13:32.677Z,6.75
2023-01-31T19:16:00.806Z,7.10
2023-01-31T19:18:27.963Z,8.23
2023-01-31T19:20:55.278Z,9.23
2023-01-31T19:23:22.447Z,9.68
2023-01-31T19:25:49.787Z,8.40
2023-01-31T19:28:17.019Z,7.07
2023-01-31T19:30:44.194Z,8.00
2023-01-31T19:33:11.931Z,7.33
2023-01-31T19:35:39.055Z,8.65
2023-01-31T19:38:06.347Z,8.63
2023-01-31T19:40:33.455Z,7.22
2023-01-31T19:43:00.499Z,9.25
2023-01-31T19:45:27.690Z,9.73
2023-01-31T19:47:57.261Z,8.85
2023-01-31T19:50:25.097Z,8.43
2023-01-31T19:52:52.222Z,10.38
2023-01-31T19:55:20.045Z,9.70
2023-01-31T19:57:47.335Z,10.02
2023-01-31T20:00:14.733Z,7.22
2023-01-31T20:02:42.981Z,9.17
2023-01-31T20:05:10.748Z,7.83
2023-01-31T20:07:37.853Z,10.05
2023-01-31T20:10:05.107Z,9.50
2023-01-31T20:12:32.203Z,9.75
2023-01-31T20:14:59.325Z,8.35
2023-01-31T20:17:26.450Z,8.73
2023-01-31T20:19:53.609Z,8.05
2023-01-31T20:22:22.842Z,7.53
2023-01-31T20:24:49.969Z,6.53
2023-01-31T20:27:17.104Z,7.53
2023-01-31T20:29:44.194Z,6.78
2023-01-31T20:32:13.293Z,7.03
2023-01-31T20:34:40.528Z,6.78
2023-01-31T20:37:07.646Z,7.07
2023-01-31T20:39:34.828Z,6.10
2023-01-31T20:42:01.892Z,7.00
2023-01-31T20:44:29.010Z,6.40
2023-01-31T20:46:56.084Z,6.00
2023-01-31T20:49:23.959Z,5.30
2023-01-31T20:51:51.031Z,7.32
2023-01-31T20:54:18.159Z,7.45
2023-01-31T20:56:45.256Z,5.78
2023-01-31T20:59:12.311Z,6.50
2023-01-31T21:01:39.492Z,5.43
2023-01-31T21:04:07.951Z,6.80
2023-01-31T21:06:35.109Z,5.95
2023-01-31T21:09:02.184Z,6.32
2023-01-31T21:11:29.374Z,6.60
2023-01-31T21:13:56.445Z,6.88
2023-01-31T21:16:23.867Z,6.85
2023-01-31T21:18:50.915Z,5.75
2023-01-31T21:21:23.313Z,7.50
2023-01-31T21:23:52.255Z,6.87
2023-01-31T21:26:20.451Z,7.07
2023-01-31T21:28:47.714Z,6.40
2023-01-31T21:31:17.227Z,7.22
2023-01-31T21:33:46.028Z,6.55
2023-01-31T21:36:14.344Z,6.23
2023-01-31T21:38:41.933Z,7.22
2023-01-31T21:41:30.298Z,8.18
2023-01-31T21:43:57.953Z,7.05
2023-01-31T21:46:25.494Z,7.35
2023-01-31T21:48:53.007Z,7.43
2023-01-31T21:51:22.157Z,6.67
2023-01-31T21:53:49.276Z,7.43
2023-01-31T21:56:17.650Z,7.80
2023-01-31T21:58:45.094Z,6.40
2023-01-31T22:01:14.270Z,6.28
2023-01-31T22:03:42.839Z,6.07
2023-01-31T22:06:10.863Z,6.60
2023-01-31T22:08:38.039Z,6.10
2023-01-31T22:11:06.347Z,6.60
2023-01-31T22:13:33.861Z,6.28
2023-01-31T22:16:09.567Z,5.53
2023-01-31T22:18:36.542Z,6.90
2023-01-31T22:21:04.844Z,6.13
2023-01-31T22:23:32.559Z,6.37
2023-01-31T22:26:03.724Z,5.45
2023-01-31T22:28:31.188Z,5.40
2023-01-31T22:30:59.163Z,6.13
2023-01-31T22:33:26.344Z,7.03
2023-01-31T22:35:53.471Z,5.30
2023-01-31T22:38:20.865Z,6.40
2023-01-31T22:40:48.047Z,5.90
2023-01-31T22:43:16.571Z,5.80
2023-01-31T22:45:45.020Z,5.20
2023-01-31T22:48:12.316Z,5.10
2023-01-31T22:50:39.560Z,4.70
2023-01-31T22:53:06.642Z,4.60
2023-01-31T22:55:37.846Z,4.80
2023-01-31T22:58:05.175Z,4.20
2023-01-31T23:00:32.925Z,3.88
2023-01-31T23:03:00.127Z,4.50
2023-01-31T23:05:27.560Z,5.43
2023-01-31T23:07:55.857Z,4.68
2023-01-31T23:10:23.634Z,4.53
2023-01-31T23:12:50.910Z,4.30
2023-01-31T23:15:17.752Z,4.32
2023-01-31T23:17:45.411Z,4.55
2023-01-31T23:20:14.610Z,5.18
2023-01-31T23:22:41.971Z,4.45
2023-01-31T23:25:10.228Z,4.82
2023-01-31T23:27:37.601Z,5.13
2023-01-31T23:30:06.147Z,4.60
2023-01-31T23:32:33.331Z,6.35
2023-01-31T23:35:00.519Z,4.88
2023-01-31T23:37:27.941Z,5.75
2023-01-31T23:39:55.099Z,5.45
2023-01-31T23:42:22.336Z,5.63
2023-01-31T23:44:49.461Z,5.97
2023-01-31T23:47:16.606Z,5.20
2023-01-31T23:49:43.334Z,5.00
2023-01-31T23:52:10.574Z,5.97
2023-01-31T23:54:37.823Z,6.05
2023-01-31T23:57:05.226Z,6.05
2023-01-31T23:59:33.719Z,6.03
